Zemple, Minnesota
Current Conditions -  °F | °C
As of 10:53 AM on Thursday 30 Oct 2014 (Local Time) from KFOZ Reporting Station
Broken Clouds Broken Clouds  
Wind Chill: 34°   Ceiling: 1600
Heat Index: 37°   Visibility: 10mi
Dew Point: 32°   Wind: 5mph
Humidity: 81%   Direction: 310°NW
Pressure: 30.12"   Gusts: NA
Location:  47.4603°N, 94.029°W
Report Text: KFOZ 301553Z AUTO 31004KT 10SM SCT011 BKN016 BKN023 03/00 A3012 RMK AO2
Loading
Personal Weather Stations






























Interactive Weather Map
Tropical Storm Tracking
New forecast layout! Learn more

10-Day Weather Forecast

Advertisements
Track Severe Weather on mobile